Aspers, Pennsylvania
Current Conditions -  °F | °C
As of 12:53 AM on Monday 22 Dec 2014 (Local Time) from KTHV Reporting Station
Haze Haze  
Wind Chill: 18°   Ceiling: Unl
Heat Index: 18°   Visibility: 5mi
Dew Point: 16°   Wind: 0mph
Humidity: 92%   Direction: NA
Pressure: 30.31"   Gusts: NA
Location:  39.98°N, 77.22°W
Report Text: KTHV 220553Z AUTO 00000KT 5SM BR CLR M08/M09 A3031 RMK AO2 SLP272 I1000 I6000 T10781089 11039 21078 58005
Loading
Personal Weather Stations






























Interactive Weather Map New forecast layout! Learn more

10-Day Weather Forecast

Advertisements
Track Severe Weather on mobile